YEG weather

Edmonton International Airport
Edmonton, Alberta, Canada

Public forecast

Using degrees Celsius for public forecast. Weather courtesy of forecast.io.

METAR (pilot weather report)

Retrieved 2019/03/22 15:00 UTC (56 minutes ago):

CYEG 221500Z 25003KT 0SM R30/0800V1200FT/N R02/0600FT/N FZFG VV001 M04/M05 A2984 RMK FG8 FROIN SLP141

TAF (pilot weather forecast)

Retrieved 2019/03/22 15:00 UTC (56 minutes ago):

TAF CYEG 221438Z 2215/2312 15006KT 6SM BR SKC TEMPO 2215/2217 1SM BR BKN001 PROB40 2215/2217 1/2SM FZFG FM221700 VRB03KT P6SM SKC FM231000 VRB03KT P6SM BKN015 RMK NXT FCST BY 221800Z